Time;durP1;ratioP1;P1;durP2;ratioP2;P2;SDS_P1;SDS_P2;PMS_P1;PMS_P2;Temp;Humidity;BMP_temperature;BMP_pressure;BME280_temperature;BME280_humidity;BME280_pressure;Samples;Min_cycle;Max_cycle;Signal;HPM_P1;HPM_P2
2022/12/01 00:00:37;;;;;;;103.43;44.72;;;4.80;99.90;;;;;;5034491;28;20014;-70
2022/12/01 00:03:03;;;;;;;90.00;42.55;;;4.80;99.90;;;;;;5034435;28;20030;-70
2022/12/01 00:05:28;;;;;;;96.70;45.72;;;4.80;99.90;;;;;;5034184;28;20079;-70
2022/12/01 00:07:56;;;;;;;91.93;43.67;;;4.80;99.90;;;;;;5033764;28;20030;-70
2022/12/01 00:10:27;;;;;;;103.30;44.05;;;4.80;99.90;;;;;;5034573;28;20022;-70
2022/12/01 00:13:01;;;;;;;101.22;44.65;;;4.80;99.90;;;;;;5034662;28;20022;-70
2022/12/01 00:15:29;;;;;;;93.47;43.35;;;4.80;99.90;;;;;;5033706;28;20032;-70
2022/12/01 00:17:56;;;;;;;105.20;44.95;;;4.80;99.90;;;;;;5034031;28;20489;-70
2022/12/01 00:20:21;;;;;;;109.22;46.92;;;4.80;99.90;;;;;;5034152;28;20025;-70
2022/12/01 00:22:48;;;;;;;92.63;42.55;;;4.80;99.90;;;;;;5034063;28;20067;-70
2022/12/01 00:25:15;;;;;;;90.00;43.30;;;4.80;99.90;;;;;;5033657;28;20171;-70
2022/12/01 00:27:42;;;;;;;100.25;44.95;;;4.80;99.90;;;;;;5033775;28;20507;-70
2022/12/01 00:30:10;;;;;;;101.47;44.78;;;4.80;99.90;;;;;;5033991;28;20030;-70
2022/12/01 00:32:36;;;;;;;99.75;43.38;;;4.90;99.90;;;;;;5033530;28;20389;-70
2022/12/01 00:35:03;;;;;;;106.40;46.20;;;4.90;99.90;;;;;;5034016;28;20025;-70
2022/12/01 00:37:30;;;;;;;95.45;44.28;;;4.90;99.90;;;;;;5033249;28;20029;-70
2022/12/01 00:39:56;;;;;;;99.75;45.70;;;4.90;99.90;;;;;;5033593;28;20029;-70
2022/12/01 00:42:22;;;;;;;99.22;44.47;;;4.80;99.90;;;;;;5034067;28;20026;-70
2022/12/01 00:44:48;;;;;;;92.95;43.60;;;4.80;99.90;;;;;;5033574;28;20440;-70
2022/12/01 00:47:14;;;;;;;98.78;42.15;;;4.80;99.90;;;;;;5033736;28;20068;-70
2022/12/01 00:49:39;;;;;;;87.50;40.92;;;4.80;99.90;;;;;;5033124;28;20065;-70
2022/12/01 00:52:05;;;;;;;90.47;41.50;;;4.80;99.90;;;;;;5033536;28;20030;-70
2022/12/01 00:54:31;;;;;;;89.88;41.60;;;4.70;99.90;;;;;;5033539;28;20092;-70
2022/12/01 00:56:58;;;;;;;98.75;44.13;;;4.70;99.90;;;;;;5033629;28;20036;-70
2022/12/01 00:59:23;;;;;;;94.90;45.70;;;4.70;99.90;;;;;;5033579;28;20029;-70
2022/12/01 01:01:49;;;;;;;99.65;44.83;;;4.80;99.90;;;;;;5032861;28;20028;-70
2022/12/01 01:04:15;;;;;;;100.22;46.03;;;4.70;99.90;;;;;;5033299;28;20074;-70
2022/12/01 01:06:42;;;;;;;87.85;42.00;;;4.70;99.90;;;;;;5032963;28;20385;-70
2022/12/01 01:09:08;;;;;;;85.50;42.08;;;4.70;99.90;;;;;;5033373;28;20018;-70
2022/12/01 01:11:34;;;;;;;96.22;42.60;;;4.70;99.90;;;;;;5033235;28;20089;-70
2022/12/01 01:13:59;;;;;;;103.25;45.75;;;4.70;99.90;;;;;;5032809;28;20121;-70
2022/12/01 01:16:25;;;;;;;95.53;44.53;;;4.70;99.90;;;;;;5031796;28;20033;-70
2022/12/01 01:18:51;;;;;;;88.25;42.92;;;4.70;99.90;;;;;;5033315;28;20061;-70
2022/12/01 01:21:20;;;;;;;82.88;40.15;;;4.70;99.90;;;;;;5033467;28;20072;-70
2022/12/01 01:23:45;;;;;;;83.40;41.47;;;4.70;99.90;;;;;;5032679;28;20033;-70
2022/12/01 01:26:18;;;;;;;90.00;41.70;;;4.70;99.90;;;;;;5033128;28;20136;-70
2022/12/01 01:28:44;;;;;;;90.90;44.08;;;4.70;99.90;;;;;;5033439;28;20025;-70
2022/12/01 01:31:13;;;;;;;95.93;42.85;;;4.70;99.90;;;;;;5033129;28;20026;-70
2022/12/01 01:33:41;;;;;;;100.55;46.95;;;4.70;99.90;;;;;;5033587;28;20028;-70
2022/12/01 01:36:07;;;;;;;104.40;49.30;;;4.60;99.90;;;;;;5026798;23;20069;-70
2022/12/01 01:38:33;;;;;;;104.50;47.05;;;4.70;99.90;;;;;;5013294;28;20478;-70
2022/12/01 01:41:00;;;;;;;115.10;48.20;;;4.70;99.90;;;;;;5013468;28;20208;-70
2022/12/01 01:43:42;;;;;;;107.38;49.42;;;4.70;99.90;;;;;;5013273;28;20022;-70
2022/12/01 01:46:29;;;;;;;100.82;46.75;;;4.70;99.90;;;;;;5013350;28;20032;-70
2022/12/01 01:49:07;;;;;;;98.22;44.03;;;4.70;99.90;;;;;;5012870;28;20500;-70
2022/12/01 01:51:40;;;;;;;112.03;50.15;;;4.60;99.90;;;;;;5013185;28;20022;-70
2022/12/01 01:54:16;;;;;;;99.20;47.95;;;4.60;99.90;;;;;;5013527;28;20033;-70
2022/12/01 01:56:47;;;;;;;99.22;47.38;;;4.60;99.90;;;;;;5010969;28;20061;-70
2022/12/01 01:59:17;;;;;;;109.15;49.28;;;4.60;99.90;;;;;;5013410;28;20057;-70
2022/12/01 02:01:46;;;;;;;100.40;47.80;;;4.60;99.90;;;;;;5013439;28;20088;-70
2022/12/01 02:04:12;;;;;;;99.55;47.53;;;4.60;99.90;;;;;;5013169;28;20054;-70
2022/12/01 02:06:38;;;;;;;115.88;50.28;;;4.70;99.90;;;;;;5012423;28;20058;-70
2022/12/01 02:09:03;;;;;;;116.88;51.97;;;4.70;99.90;;;;;;5013304;28;20067;-70
2022/12/01 02:12:15;;;;;;;107.93;48.83;;;4.70;99.90;;;;;;5016721;28;20030;-70
2022/12/01 02:15:00;;;;;;;121.20;51.38;;;4.60;99.90;;;;;;4975726;28;20041;-70
2022/12/01 02:17:32;;;;;;;119.95;54.83;;;4.60;99.90;;;;;;5013461;28;20057;-70
2022/12/01 02:20:21;;;;;;;134.35;55.42;;;4.60;99.90;;;;;;5015278;28;20026;-70
2022/12/01 02:23:18;;;;;;;128.77;55.95;;;4.60;99.90;;;;;;5016839;28;20059;-70
2022/12/01 02:26:13;;;;;;;123.78;57.47;;;4.60;99.90;;;;;;5016547;28;20029;-70
2022/12/01 02:29:12;;;;;;;129.55;58.58;;;4.50;99.90;;;;;;5017150;28;20470;-70
2022/12/01 02:31:53;;;;;;;129.02;57.65;;;4.50;99.90;;;;;;5016505;28;20067;-70
2022/12/01 02:34:31;;;;;;;129.43;56.05;;;4.50;99.90;;;;;;5017391;28;20448;-70
2022/12/01 02:37:11;;;;;;;142.02;63.85;;;4.50;99.90;;;;;;5016583;28;20037;-70
2022/12/01 02:39:45;;;;;;;155.55;66.32;;;4.50;99.90;;;;;;5016404;28;20029;-70
2022/12/01 02:42:48;;;;;;;160.82;69.68;;;4.50;99.90;;;;;;5015897;28;20037;-70
2022/12/01 02:45:11;;;;;;;150.48;65.32;;;4.50;99.90;;;;;;5015920;28;20033;-70
2022/12/01 02:47:40;;;;;;;157.00;66.70;;;4.50;99.90;;;;;;5014881;28;20030;-70
2022/12/01 02:50:07;;;;;;;154.25;66.03;;;4.50;99.90;;;;;;5016376;28;20026;-70
2022/12/01 02:52:33;;;;;;;149.23;65.05;;;4.50;99.90;;;;;;5015581;28;20524;-70
2022/12/01 02:54:59;;;;;;;150.30;64.75;;;4.40;99.90;;;;;;5015992;28;20041;-70
2022/12/01 02:57:24;;;;;;;140.02;65.32;;;4.50;99.90;;;;;;5015801;28;20029;-70
2022/12/01 02:59:54;;;;;;;150.55;65.10;;;4.50;99.90;;;;;;5016040;28;20055;-70
2022/12/01 03:02:42;;;;;;;142.75;63.08;;;4.40;99.90;;;;;;5015963;28;20052;-71
2022/12/01 03:05:19;;;;;;;149.23;63.88;;;4.40;99.90;;;;;;5015365;28;20170;-70
2022/12/01 03:08:12;;;;;;;157.80;65.10;;;4.40;99.90;;;;;;5016287;28;20029;-70
2022/12/01 03:10:53;;;;;;;141.93;63.90;;;4.40;99.90;;;;;;5015744;28;20030;-70
2022/12/01 03:13:44;;;;;;;150.90;65.43;;;4.40;99.90;;;;;;5015767;28;20097;-70
2022/12/01 03:16:37;;;;;;;138.48;60.50;;;4.40;99.90;;;;;;5014962;28;20513;-70
2022/12/01 03:19:14;;;;;;;139.57;61.60;;;4.40;99.90;;;;;;5015684;28;20038;-70
2022/12/01 03:22:13;;;;;;;134.95;60.22;;;4.40;99.90;;;;;;5015827;28;20295;-70
2022/12/01 03:24:42;;;;;;;129.70;56.55;;;4.40;99.90;;;;;;4983846;28;20061;-70
2022/12/01 03:27:11;;;;;;;130.30;57.33;;;4.40;99.90;;;;;;4995730;28;20019;-70
2022/12/01 03:29:42;;;;;;;120.90;56.08;;;4.40;99.90;;;;;;4995306;28;20106;-70
2022/12/01 03:32:26;;;;;;;135.63;58.25;;;4.40;99.90;;;;;;4996061;28;20022;-70
2022/12/01 03:35:10;;;;;;;;;;;4.40;99.90;;;;;;5008410;28;20030;-70
2022/12/01 03:37:52;;;;;;;119.00;55.25;;;4.40;99.90;;;;;;5015317;28;19905;-70
2022/12/01 03:40:24;;;;;;;136.07;59.80;;;4.40;99.90;;;;;;5015624;28;20037;-70
2022/12/01 03:43:00;;;;;;;135.98;59.17;;;4.40;99.90;;;;;;5015166;28;20092;-70
2022/12/01 03:45:34;;;;;;;129.45;60.28;;;4.40;99.90;;;;;;5015036;28;20022;-70
2022/12/01 03:47:59;;;;;;;121.90;54.58;;;4.40;99.90;;;;;;5015389;28;20037;-70
2022/12/01 03:50:40;;;;;;;131.50;60.53;;;4.40;99.90;;;;;;5014861;28;20084;-70
2022/12/01 03:53:21;;;;;;;142.18;61.15;;;4.40;99.90;;;;;;5015148;28;20076;-70
2022/12/01 03:55:54;;;;;;;135.63;60.45;;;4.40;99.90;;;;;;5014382;28;20057;-70
2022/12/01 03:58:27;;;;;;;135.90;60.00;;;4.40;99.90;;;;;;5014954;28;20034;-70
2022/12/01 04:00:56;;;;;;;127.05;56.20;;;4.40;99.90;;;;;;5015020;28;20113;-70
2022/12/01 04:03:24;;;;;;;129.23;56.70;;;4.40;99.90;;;;;;5014335;28;20052;-70
2022/12/01 04:05:50;;;;;;;131.82;57.90;;;4.40;99.90;;;;;;5014790;28;20030;-70
2022/12/01 04:08:15;;;;;;;136.63;61.58;;;4.40;99.90;;;;;;5014673;28;20164;-70
2022/12/01 04:10:41;;;;;;;128.75;58.00;;;4.50;99.90;;;;;;5014716;28;20096;-70
2022/12/01 04:13:14;;;;;;;127.60;56.20;;;4.40;99.90;;;;;;5014522;28;20440;-70
2022/12/01 04:15:40;;;;;;;129.18;57.75;;;4.40;99.90;;;;;;5014205;28;20033;-70
2022/12/01 04:18:05;;;;;;;135.95;58.28;;;4.40;99.90;;;;;;5014620;28;20030;-70
2022/12/01 04:20:31;;;;;;;124.38;56.35;;;4.40;99.90;;;;;;5014689;28;20033;-70
2022/12/01 04:22:57;;;;;;;119.40;53.85;;;4.50;99.90;;;;;;5014427;28;20045;-70
2022/12/01 04:25:22;;;;;;;138.48;58.97;;;4.50;99.90;;;;;;5014292;28;20037;-70
2022/12/01 04:27:48;;;;;;;133.77;57.70;;;4.40;99.90;;;;;;5014179;28;20034;-70
2022/12/01 04:30:13;;;;;;;142.10;58.08;;;4.50;99.90;;;;;;5013863;28;20072;-70
2022/12/01 04:32:41;;;;;;;123.90;54.42;;;4.40;99.90;;;;;;5013763;28;20030;-70
2022/12/01 04:35:09;;;;;;;123.88;54.28;;;4.50;99.90;;;;;;5014611;28;20114;-70
2022/12/01 04:37:34;;;;;;;138.85;58.40;;;4.50;99.90;;;;;;5012848;28;20089;-70
2022/12/01 04:40:00;;;;;;;124.95;55.67;;;4.50;99.90;;;;;;5014390;28;20478;-70
2022/12/01 04:42:25;;;;;;;118.63;54.03;;;4.50;99.90;;;;;;5013552;28;20076;-70
2022/12/01 04:44:51;;;;;;;130.30;56.38;;;4.50;99.90;;;;;;5014018;28;20026;-70
2022/12/01 04:47:16;;;;;;;123.95;53.63;;;4.50;99.90;;;;;;5014102;28;20034;-70
2022/12/01 04:49:42;;;;;;;118.43;51.90;;;4.50;99.90;;;;;;5013944;28;20018;-70
2022/12/01 04:52:07;;;;;;;126.28;51.72;;;4.50;99.90;;;;;;5012943;28;20440;-70
2022/12/01 04:54:33;;;;;;;128.40;55.55;;;4.50;99.90;;;;;;5013333;28;20030;-70
2022/12/01 04:56:58;;;;;;;119.25;53.78;;;4.50;99.90;;;;;;5014040;28;20028;-70
2022/12/01 04:59:24;;;;;;;120.72;52.97;;;4.50;99.90;;;;;;5014080;28;20421;-70
2022/12/01 05:01:50;;;;;;;111.78;51.03;;;4.40;99.90;;;;;;5013803;28;20092;-70
2022/12/01 05:04:15;;;;;;;108.00;47.03;;;4.50;99.90;;;;;;5013691;28;20065;-70
2022/12/01 05:06:41;;;;;;;113.32;49.58;;;4.50;99.90;;;;;;5013236;28;20038;-70
2022/12/01 05:09:09;;;;;;;115.57;49.47;;;4.50;99.90;;;;;;5012460;28;20026;-70
2022/12/01 05:11:34;;;;;;;110.40;48.42;;;4.50;99.90;;;;;;5013576;28;20505;-70
2022/12/01 05:14:00;;;;;;;103.85;46.65;;;4.40;99.90;;;;;;5013518;28;20036;-70
2022/12/01 05:16:31;;;;;;;104.57;45.95;;;4.40;99.90;;;;;;5012680;28;20030;-70
2022/12/01 05:21:44;;;;;;;111.35;46.13;;;4.50;99.90;;;;;;5013616;28;20028;-70
2022/12/01 05:24:11;;;;;;;98.85;44.40;;;4.50;99.90;;;;;;5013610;28;20435;-70
2022/12/01 05:26:38;;;;;;;93.43;42.58;;;4.50;99.90;;;;;;5040033;23;20045;-74
2022/12/01 05:29:03;;;;;;;92.10;41.05;;;4.50;99.90;;;;;;5033546;28;20029;-74
2022/12/01 05:31:29;;;;;;;105.78;44.22;;;4.50;99.90;;;;;;5033739;28;20025;-74
2022/12/01 05:33:55;;;;;;;90.63;39.60;;;4.50;99.90;;;;;;5033919;28;20026;-74
2022/12/01 05:36:20;;;;;;;96.47;41.88;;;4.50;99.90;;;;;;5033621;28;20038;-74
2022/12/01 05:38:46;;;;;;;95.03;42.53;;;4.50;99.90;;;;;;5032975;28;20029;-74
2022/12/01 05:41:12;;;;;;;95.80;40.33;;;4.50;99.90;;;;;;5031971;28;20440;-73
2022/12/01 05:43:37;;;;;;;96.15;42.92;;;4.50;99.90;;;;;;5033725;28;20032;-74
2022/12/01 05:46:03;;;;;;;97.70;41.00;;;4.50;99.90;;;;;;5036923;28;20065;-74
2022/12/01 05:48:29;;;;;;;86.40;39.53;;;4.50;99.90;;;;;;5036716;28;20395;-74
2022/12/01 05:50:54;;;;;;;83.38;39.95;;;4.50;99.90;;;;;;5037529;28;20029;-75
2022/12/01 05:53:20;;;;;;;97.28;40.33;;;4.50;99.90;;;;;;5037509;28;20484;-74
2022/12/01 05:55:49;;;;;;;80.80;38.45;;;4.50;99.90;;;;;;5037342;28;20059;-74
2022/12/01 05:58:15;;;;;;;87.32;38.58;;;4.50;99.90;;;;;;5037162;28;20060;-74
2022/12/01 06:00:41;;;;;;;88.07;38.85;;;4.60;99.90;;;;;;5037020;28;20067;-74
2022/12/01 06:03:07;;;;;;;81.40;38.45;;;4.60;99.90;;;;;;5035924;28;20021;-74
2022/12/01 06:05:32;;;;;;;89.57;37.58;;;4.60;99.90;;;;;;5036922;28;20488;-74
2022/12/01 06:07:58;;;;;;;82.72;37.05;;;4.50;99.90;;;;;;5035674;28;20025;-75
2022/12/01 06:10:23;;;;;;;92.38;37.15;;;4.60;99.90;;;;;;5036680;28;20215;-74
2022/12/01 06:12:49;;;;;;;78.45;34.78;;;4.60;99.90;;;;;;5035700;28;20017;-74
2022/12/01 06:15:15;;;;;;;80.57;34.90;;;4.60;99.90;;;;;;5036913;28;20100;-74
2022/12/01 06:17:40;;;;;;;74.20;32.60;;;4.50;99.90;;;;;;5036773;28;20485;-74
2022/12/01 06:20:07;;;;;;;84.78;34.22;;;4.50;99.90;;;;;;5036811;28;20029;-74
2022/12/01 06:22:32;;;;;;;68.05;31.33;;;4.60;99.90;;;;;;5035028;28;20086;-74
2022/12/01 06:24:58;;;;;;;78.82;34.35;;;4.60;99.90;;;;;;5035343;28;20022;-74
2022/12/01 06:27:23;;;;;;;74.78;32.28;;;4.60;99.90;;;;;;5036680;28;20493;-74
2022/12/01 06:29:49;;;;;;;69.95;30.77;;;4.60;99.90;;;;;;5036601;28;20100;-74
2022/12/01 06:32:15;;;;;;;72.85;30.95;;;4.60;99.90;;;;;;5036862;28;20136;-74
2022/12/01 06:34:42;;;;;;;70.55;31.88;;;4.60;99.90;;;;;;5036097;28;20021;-74
2022/12/01 06:37:08;;;;;;;67.13;32.65;;;4.60;99.90;;;;;;5035224;28;20025;-75
2022/12/01 06:39:33;;;;;;;70.00;31.48;;;4.60;99.90;;;;;;5036439;28;20028;-74
2022/12/01 06:41:59;;;;;;;77.30;33.08;;;4.60;99.90;;;;;;5036461;28;20022;-74
2022/12/01 06:44:24;;;;;;;66.80;31.88;;;4.60;99.90;;;;;;5036551;28;20476;-74
2022/12/01 06:46:51;;;;;;;66.15;32.05;;;4.60;99.90;;;;;;5035729;28;20033;-74
2022/12/01 06:49:17;;;;;;;75.68;33.85;;;4.60;99.90;;;;;;5036161;28;20385;-73
2022/12/01 06:51:43;;;;;;;75.43;34.85;;;4.60;99.90;;;;;;5036244;28;20029;-74
2022/12/01 06:54:10;;;;;;;64.43;32.40;;;4.60;99.90;;;;;;5035675;28;20022;-73
2022/12/01 06:56:36;;;;;;;69.90;32.53;;;4.60;99.90;;;;;;5035594;28;20393;-74
2022/12/01 06:59:01;;;;;;;77.45;32.90;;;4.60;99.90;;;;;;5036091;28;20029;-74
2022/12/01 07:01:27;;;;;;;62.92;30.85;;;4.60;99.90;;;;;;5035973;28;20021;-74
2022/12/01 07:03:53;;;;;;;72.35;34.65;;;4.60;99.90;;;;;;5036041;28;20017;-74
2022/12/01 07:06:19;;;;;;;72.35;31.98;;;4.60;99.90;;;;;;5033997;28;20167;-74
2022/12/01 07:08:45;;;;;;;71.03;33.53;;;4.70;99.90;;;;;;5034653;28;20072;-74
2022/12/01 07:11:13;;;;;;;74.65;33.10;;;4.70;99.90;;;;;;5035878;28;20020;-74
2022/12/01 07:13:39;;;;;;;69.15;32.20;;;4.70;99.90;;;;;;5035974;28;20576;-74
2022/12/01 07:16:06;;;;;;;80.13;34.13;;;4.60;99.90;;;;;;5035925;28;20485;-74
2022/12/01 07:18:32;;;;;;;72.82;35.17;;;4.60;99.90;;;;;;5033892;28;20068;-74
2022/12/01 07:21:04;;;;;;;70.75;31.88;;;4.70;99.90;;;;;;5036149;28;20029;-74
2022/12/01 07:23:29;;;;;;;65.50;32.10;;;4.60;99.90;;;;;;5036019;28;20385;-74
2022/12/01 07:26:06;;;;;;;64.63;31.38;;;4.60;99.90;;;;;;5035028;28;20030;-73
2022/12/01 07:28:32;;;;;;;68.95;31.85;;;4.60;99.90;;;;;;5036314;28;20077;-74
2022/12/01 07:31:06;;;;;;;71.68;33.53;;;4.60;99.90;;;;;;5035359;28;20424;-74
2022/12/01 07:33:32;;;;;;;78.07;35.10;;;4.70;99.90;;;;;;5035171;28;20393;-74
2022/12/01 07:35:58;;;;;;;76.32;34.05;;;4.70;99.90;;;;;;5035379;28;20017;-74
2022/12/01 07:38:25;;;;;;;77.60;35.60;;;4.70;99.90;;;;;;5036082;28;20071;-74
2022/12/01 07:40:51;;;;;;;79.80;33.33;;;4.70;99.90;;;;;;5035094;28;20049;-74
2022/12/01 07:43:16;;;;;;;69.70;33.65;;;4.70;99.90;;;;;;5035598;28;20053;-74
2022/12/01 07:45:42;;;;;;;73.47;34.58;;;4.60;99.90;;;;;;5035062;28;20033;-74
2022/12/01 07:48:07;;;;;;;80.82;35.78;;;4.70;99.90;;;;;;5033874;28;20051;-74
2022/12/01 07:50:33;;;;;;;83.57;36.17;;;4.70;99.90;;;;;;5035211;28;20017;-74
2022/12/01 07:52:58;;;;;;;79.55;34.50;;;4.70;99.90;;;;;;5035144;28;20473;-74
2022/12/01 07:55:24;;;;;;;83.68;36.70;;;4.70;99.90;;;;;;5034603;28;20040;-74
2022/12/01 07:57:49;;;;;;;77.65;34.42;;;4.80;99.90;;;;;;5035090;28;20030;-74
2022/12/01 08:00:15;;;;;;;76.32;35.22;;;4.70;99.90;;;;;;5034911;28;20044;-74
2022/12/01 08:02:41;;;;;;;78.10;34.60;;;4.70;99.90;;;;;;5032833;28;20504;-72
2022/12/01 08:05:07;;;;;;;89.20;39.25;;;4.80;99.90;;;;;;5027985;28;20087;-74
2022/12/01 08:07:32;;;;;;;92.82;40.40;;;4.80;99.90;;;;;;5032679;28;20116;-74
2022/12/01 08:09:58;;;;;;;104.63;41.40;;;4.80;99.90;;;;;;5034648;28;20025;-74
2022/12/01 08:12:23;;;;;;;91.35;38.10;;;4.80;99.90;;;;;;5034810;28;20021;-74
2022/12/01 08:14:49;;;;;;;82.93;38.20;;;4.80;99.90;;;;;;5034230;28;20064;-75
2022/12/01 08:17:14;;;;;;;93.20;40.45;;;4.80;99.90;;;;;;5034546;28;20547;-74
2022/12/01 08:19:40;;;;;;;99.45;42.42;;;4.90;99.90;;;;;;5034525;28;20030;-74
2022/12/01 08:22:05;;;;;;;91.10;41.38;;;4.90;99.90;;;;;;5033968;28;20025;-73
2022/12/01 08:24:31;;;;;;;78.32;37.53;;;4.90;99.90;;;;;;5034729;28;20021;-75
2022/12/01 08:26:56;;;;;;;87.38;39.13;;;4.90;99.90;;;;;;5034146;28;20102;-74
2022/12/01 08:29:22;;;;;;;95.07;42.53;;;4.90;99.90;;;;;;5033100;28;20017;-74
2022/12/01 08:31:47;;;;;;;84.03;40.03;;;5.00;99.90;;;;;;5034395;28;20021;-73
2022/12/01 08:34:13;;;;;;;91.20;41.92;;;5.00;99.90;;;;;;5033782;28;20017;-73
2022/12/01 08:36:38;;;;;;;96.45;42.08;;;5.00;99.90;;;;;;5032883;28;20028;-74
2022/12/01 08:39:07;;;;;;;92.30;40.50;;;5.00;99.90;;;;;;5034180;28;20033;-73
2022/12/01 08:41:33;;;;;;;81.60;38.80;;;5.00;99.90;;;;;;5034137;28;20108;-74
2022/12/01 08:43:59;;;;;;;99.60;41.90;;;5.00;99.90;;;;;;5034370;28;20559;-74
2022/12/01 08:46:32;;;;;;;96.82;42.58;;;5.00;99.90;;;;;;5032276;28;20080;-73
2022/12/01 08:48:58;;;;;;;;;;;5.00;99.90;;;;;;5034723;28;20029;-73
2022/12/01 08:51:24;;;;;;;94.15;41.63;;;5.00;99.90;;;;;;5034024;28;20288;-74
2022/12/01 08:53:50;;;;;;;97.45;42.88;;;5.10;99.90;;;;;;5032772;28;20091;-74
2022/12/01 08:56:30;;;;;;;97.20;42.75;;;5.00;99.90;;;;;;5033896;28;20453;-73
2022/12/01 08:58:56;;;;;;;93.95;42.65;;;5.10;99.90;;;;;;5032804;28;20106;-73
2022/12/01 09:01:24;;;;;;;80.00;37.88;;;5.10;99.90;;;;;;5033618;28;20060;-73
2022/12/01 09:04:03;;;;;;;98.38;42.97;;;5.20;99.90;;;;;;5033878;28;20018;-73
2022/12/01 09:06:30;;;;;;;92.57;41.80;;;5.10;99.90;;;;;;5033939;28;20025;-73
2022/12/01 09:08:58;;;;;;;97.90;43.03;;;5.20;99.90;;;;;;5032587;28;20033;-73
2022/12/01 09:11:24;;;;;;;95.03;42.10;;;5.20;99.90;;;;;;5034041;28;20532;-74
2022/12/01 09:13:49;;;;;;;96.50;43.60;;;5.20;99.90;;;;;;5033466;28;20113;-73
2022/12/01 09:16:16;;;;;;;88.38;39.67;;;5.20;99.90;;;;;;5033897;28;20029;-73
2022/12/01 09:18:44;;;;;;;100.20;44.80;;;5.30;99.90;;;;;;5033657;28;20120;-73
2022/12/01 09:21:15;;;;;;;89.05;41.33;;;5.30;99.90;;;;;;5033021;28;20061;-73
2022/12/01 09:23:40;;;;;;;87.85;42.53;;;5.40;99.90;;;;;;5032141;28;20026;-73
2022/12/01 09:26:07;;;;;;;86.85;38.40;;;5.40;99.90;;;;;;5033365;28;20044;-73
2022/12/01 09:28:33;;;;;;;79.43;39.55;;;5.40;99.90;;;;;;5033312;28;20097;-74
2022/12/01 09:31:07;;;;;;;76.18;37.80;;;5.40;99.90;;;;;;5033545;28;20026;-73
2022/12/01 09:33:32;;;;;;;;;;;5.50;99.90;;;;;;5033236;28;20071;-73
2022/12/01 09:35:59;;;;;;;78.70;36.25;;;5.50;99.90;;;;;;5032321;28;19905;-74
2022/12/01 09:38:25;;;;;;;84.45;40.63;;;5.50;99.90;;;;;;5033412;28;20025;-72
2022/12/01 09:40:51;;;;;;;85.68;40.35;;;5.50;99.90;;;;;;5033388;28;20025;-73
2022/12/01 09:43:21;;;;;;;88.03;40.72;;;5.50;99.90;;;;;;5032833;28;20041;-73
2022/12/01 09:45:51;;;;;;;79.57;38.00;;;5.60;99.90;;;;;;5033761;28;20065;-74
2022/12/01 09:48:29;;;;;;;85.30;40.10;;;5.50;99.90;;;;;;5033729;28;20111;-74
2022/12/01 09:50:55;;;;;;;87.05;38.75;;;5.60;99.90;;;;;;5033392;28;20030;-74
2022/12/01 09:53:24;;;;;;;77.25;36.17;;;5.50;99.90;;;;;;5031937;28;20028;-74
2022/12/01 09:55:50;;;;;;;79.18;38.72;;;5.50;99.90;;;;;;5032661;28;20022;-73
2022/12/01 09:58:21;;;;;;;82.53;38.50;;;5.60;99.90;;;;;;5033177;28;20036;-74
2022/12/01 10:00:48;;;;;;;79.15;38.58;;;5.50;99.90;;;;;;5031819;28;20036;-74
2022/12/01 10:03:34;;;;;;;85.88;37.38;;;5.50;99.90;;;;;;5033161;28;20031;-73
2022/12/01 10:06:09;;;;;;;83.82;37.05;;;5.50;99.90;;;;;;5033105;28;20492;-74
2022/12/01 10:08:51;;;;;;;82.78;37.13;;;5.50;99.90;;;;;;5033404;28;20033;-74
2022/12/01 10:11:29;;;;;;;78.38;35.50;;;5.50;99.90;;;;;;5032494;28;20033;-73
2022/12/01 10:13:54;;;;;;;77.85;36.63;;;5.50;99.90;;;;;;5033611;28;20479;-73
2022/12/01 10:16:27;;;;;;;77.07;35.47;;;5.50;99.90;;;;;;5033217;28;20089;-74
2022/12/01 10:18:55;;;;;;;83.18;35.33;;;5.50;99.90;;;;;;5033019;28;20022;-73
2022/12/01 10:22:00;;;;;;;75.68;35.55;;;5.50;99.90;;;;;;5033333;28;20377;-74
2022/12/01 10:24:31;;;;;;;74.18;34.20;;;5.50;99.90;;;;;;5011077;28;20434;-73
2022/12/01 10:27:22;;;;;;;79.80;36.47;;;5.50;99.90;;;;;;5013081;28;20041;-73
2022/12/01 10:29:53;;;;;;;69.75;34.35;;;5.50;99.90;;;;;;5013576;28;20033;-73
2022/12/01 10:32:34;;;;;;;76.43;34.47;;;5.60;99.90;;;;;;5015701;28;20425;-73
2022/12/01 10:34:59;;;;;;;63.95;33.10;;;5.60;99.90;;;;;;5029412;28;20022;-73
2022/12/01 10:37:28;;;;;;;67.75;32.13;;;5.60;99.90;;;;;;5036519;28;20025;-73
2022/12/01 10:39:55;;;;;;;66.82;32.03;;;5.60;99.90;;;;;;5036423;28;20138;-73
2022/12/01 10:42:39;;;;;;;77.65;34.30;;;5.60;99.90;;;;;;5036626;28;20061;-73
2022/12/01 10:45:20;;;;;;;71.25;34.67;;;5.60;99.90;;;;;;5036382;28;20064;-73
2022/12/01 10:48:16;;;;;;;69.53;35.15;;;5.70;99.90;;;;;;5035710;28;20507;-73
2022/12/01 10:51:06;;;;;;;71.05;35.60;;;5.80;99.90;;;;;;5035120;28;20072;-73
2022/12/01 10:53:34;;;;;;;85.13;38.10;;;5.70;99.90;;;;;;5029723;28;20405;-73
2022/12/01 10:56:17;;;;;;;79.63;35.00;;;5.70;99.90;;;;;;5036277;28;20025;-73
2022/12/01 10:58:52;;;;;;;74.00;34.47;;;5.70;99.90;;;;;;5034857;28;20030;-73
2022/12/01 11:01:27;;;;;;;77.00;36.72;;;5.70;99.90;;;;;;5035608;28;20029;-73
2022/12/01 11:04:31;;;;;;;70.28;33.60;;;5.70;99.90;;;;;;5036317;28;20029;-74
2022/12/01 11:06:56;;;;;;;73.60;34.20;;;5.70;99.90;;;;;;5032436;28;20041;-74
2022/12/01 11:09:28;;;;;;;73.68;36.97;;;5.70;99.90;;;;;;5034694;28;20056;-74
2022/12/01 11:12:01;;;;;;;72.55;35.33;;;5.70;99.90;;;;;;5035379;28;20044;-73
2022/12/01 11:14:44;;;;;;;66.75;33.17;;;5.70;99.90;;;;;;5035908;28;20362;-74
2022/12/01 11:17:34;;;;;;;85.43;35.60;;;5.80;99.90;;;;;;5034324;28;20113;-73
2022/12/01 11:20:26;;;;;;;76.03;34.47;;;5.70;99.90;;;;;;5029957;28;20519;-73
2022/12/01 11:22:52;;;;;;;74.82;34.58;;;5.80;99.90;;;;;;5035530;28;20119;-72
2022/12/01 11:25:19;;;;;;;78.00;37.33;;;5.90;99.90;;;;;;5035405;28;20497;-73
2022/12/01 11:27:51;;;;;;;74.88;36.30;;;5.80;99.90;;;;;;5057891;23;20084;-70
2022/12/01 11:30:23;;;;;;;77.38;35.58;;;5.90;99.90;;;;;;5035459;28;20026;-70
2022/12/01 11:32:56;;;;;;;77.82;36.80;;;5.90;99.90;;;;;;5035020;28;20424;-70
2022/12/01 11:35:24;;;;;;;72.80;36.95;;;6.00;99.90;;;;;;5035422;28;20026;-70
2022/12/01 11:37:53;;;;;;;82.30;38.35;;;5.90;99.90;;;;;;5034981;28;20056;-70
2022/12/01 11:40:25;;;;;;;78.57;36.35;;;6.00;99.90;;;;;;5035006;28;20036;-70
2022/12/01 11:43:03;;;;;;;80.68;38.70;;;6.00;99.90;;;;;;5033891;28;20032;-70
2022/12/01 11:45:31;;;;;;;79.57;38.38;;;6.10;99.90;;;;;;5034355;28;20485;-70
2022/12/01 11:48:05;;;;;;;83.32;38.28;;;6.10;99.90;;;;;;5016994;28;20172;-70
2022/12/01 11:50:36;;;;;;;81.47;39.75;;;6.00;99.90;;;;;;5035663;28;20026;-70
2022/12/01 11:53:03;;;;;;;83.30;39.45;;;6.00;99.90;;;;;;5034967;28;20026;-70
2022/12/01 11:55:30;;;;;;;80.43;38.75;;;6.10;99.90;;;;;;5034091;28;20030;-70
2022/12/01 11:58:01;;;;;;;78.55;37.30;;;6.00;99.90;;;;;;5035162;28;20040;-70
2022/12/01 12:00:53;;;;;;;77.43;37.70;;;6.00;99.90;;;;;;5034649;28;20029;-70
2022/12/01 12:03:21;;;;;;;87.32;38.22;;;6.00;99.90;;;;;;5034924;28;20029;-70
2022/12/01 12:06:05;;;;;;;80.03;38.42;;;6.00;99.90;;;;;;5033985;28;20544;-70
2022/12/01 12:08:51;;;;;;;75.72;37.90;;;6.00;99.90;;;;;;5034652;28;20095;-71
2022/12/01 12:11:27;;;;;;;79.13;36.90;;;6.00;99.90;;;;;;5034338;28;20575;-70
2022/12/01 12:14:26;;;;;;;91.53;39.03;;;6.00;99.90;;;;;;5033926;28;20021;-70
2022/12/01 12:17:16;;;;;;;76.80;35.20;;;6.00;99.90;;;;;;5034195;28;20155;-70
2022/12/01 12:20:19;;;;;;;70.32;37.10;;;6.00;99.90;;;;;;5034257;28;20503;-70
2022/12/01 12:23:13;;;;;;;75.90;37.55;;;6.00;99.90;;;;;;5034430;28;20101;-70
2022/12/01 12:26:16;;;;;;;84.80;39.08;;;5.90;99.90;;;;;;5034624;28;20025;-70
2022/12/01 12:29:18;;;;;;;79.82;35.80;;;5.90;99.90;;;;;;5031326;28;20060;-70
2022/12/01 12:32:26;;;;;;;80.28;37.83;;;5.90;99.90;;;;;;5034853;28;20032;-70
2022/12/01 12:35:08;;;;;;;77.53;35.40;;;5.80;99.90;;;;;;5034371;28;20555;-70
2022/12/01 12:37:47;;;;;;;75.93;37.22;;;5.80;99.90;;;;;;5035061;28;20036;-70
2022/12/01 12:40:28;;;;;;;89.28;39.08;;;5.80;99.90;;;;;;5034300;28;20060;-70
2022/12/01 12:43:19;;;;;;;89.38;37.08;;;5.70;99.90;;;;;;5033800;28;20064;-70
2022/12/01 12:45:48;;;;;;;77.65;37.03;;;5.70;99.90;;;;;;5007456;28;20033;-70
2022/12/01 12:48:29;;;;;;;84.72;37.83;;;5.70;99.90;;;;;;5033637;28;20029;-70
2022/12/01 12:51:07;;;;;;;84.07;38.42;;;5.70;99.90;;;;;;5015809;28;20374;-70
2022/12/01 12:53:45;;;;;;;84.32;39.95;;;5.70;99.90;;;;;;5033566;28;20025;-70
2022/12/01 12:56:14;;;;;;;79.45;38.00;;;5.60;99.90;;;;;;5033189;28;20049;-70
2022/12/01 12:59:07;;;;;;;81.95;38.35;;;5.60;99.90;;;;;;5033656;28;20037;-70